Time;durP1;ratioP1;P1;durP2;ratioP2;P2;SDS_P1;SDS_P2;PMS_P1;PMS_P2;Temp;Humidity;BMP_temperature;BMP_pressure;BME280_temperature;BME280_humidity;BME280_pressure;Samples;Min_cycle;Max_cycle;Signal;HPM_P1;HPM_P2
2021/03/27 00:01:00;;;;;;;9.70;7.07;;;9.30;99.90;;;;;;5039574;28;20183;-46
2021/03/27 00:03:28;;;;;;;7.87;6.80;;;9.20;99.90;;;;;;5041713;28;20183;-50
2021/03/27 00:06:08;;;;;;;9.63;6.90;;;9.20;99.90;;;;;;5044469;28;20183;-46
2021/03/27 00:08:50;;;;;;;10.37;7.23;;;9.20;99.90;;;;;;5061077;28;20257;-49
2021/03/27 00:11:28;;;;;;;7.70;6.87;;;9.20;99.90;;;;;;5048533;28;20674;-54
2021/03/27 00:14:01;;;;;;;10.27;7.47;;;9.20;99.90;;;;;;5048121;28;20228;-47
2021/03/27 00:16:36;;;;;;;11.27;6.80;;;9.10;99.90;;;;;;5051143;28;20235;-55
2021/03/27 00:19:13;;;;;;;8.27;6.53;;;9.10;99.90;;;;;;5061003;28;20194;-52
2021/03/27 00:21:47;;;;;;;9.37;7.03;;;9.10;99.90;;;;;;5048562;28;20908;-51
2021/03/27 00:24:30;;;;;;;8.13;6.50;;;9.10;99.90;;;;;;5066006;28;20197;-48
2021/03/27 00:27:09;;;;;;;9.80;6.93;;;9.10;99.90;;;;;;5065576;28;20179;-50
2021/03/27 00:29:44;;;;;;;8.13;7.07;;;9.10;99.90;;;;;;5061627;28;20194;-53
2021/03/27 00:32:44;;;;;;;10.37;7.43;;;9.00;99.90;;;;;;5066118;28;20202;-50
2021/03/27 00:35:15;;;;;;;10.10;7.43;;;9.00;99.90;;;;;;5042834;28;20766;-47
2021/03/27 00:37:43;;;;;;;9.20;7.30;;;8.90;99.90;;;;;;5032929;28;20303;-49
2021/03/27 00:40:24;;;;;;;13.20;8.77;;;8.90;99.90;;;;;;5053849;28;20209;-48
2021/03/27 00:43:06;;;;;;;10.03;7.73;;;8.90;99.90;;;;;;5061113;28;20245;-49
2021/03/27 00:45:43;;;;;;;8.80;7.00;;;8.90;99.90;;;;;;5060464;28;20813;-50
2021/03/27 00:48:15;;;;;;;8.90;7.20;;;8.90;99.90;;;;;;5056315;28;20273;-48
2021/03/27 00:50:54;;;;;;;10.47;7.10;;;8.80;99.90;;;;;;5044852;28;21420;-51
2021/03/27 00:53:36;;;;;;;10.50;7.47;;;8.70;99.90;;;;;;5048973;28;20185;-48
2021/03/27 00:56:19;;;;;;;9.73;7.33;;;8.70;99.90;;;;;;5065625;28;20569;-49
2021/03/27 00:58:55;;;;;;;8.83;7.30;;;8.70;99.90;;;;;;5062708;28;20288;-53
2021/03/27 01:01:25;;;;;;;12.13;7.07;;;8.70;99.90;;;;;;5062933;28;20185;-51
2021/03/27 01:04:31;;;;;;;9.40;7.60;;;8.70;99.90;;;;;;5051623;28;20278;-50
2021/03/27 01:07:18;;;;;;;8.17;7.07;;;8.70;99.90;;;;;;5034161;28;20277;-49
2021/03/27 01:10:21;;;;;;;10.43;7.63;;;8.70;99.90;;;;;;5053419;28;20194;-50
2021/03/27 01:13:33;;;;;;;9.40;7.27;;;8.70;99.90;;;;;;5039582;28;20196;-52
2021/03/27 01:16:02;;;;;;;12.37;7.30;;;8.70;99.90;;;;;;5030404;28;20404;-49
2021/03/27 01:18:54;;;;;;;8.77;6.90;;;8.70;99.90;;;;;;5053140;28;20226;-49
2021/03/27 01:21:26;;;;;;;10.73;7.37;;;8.70;99.90;;;;;;5056520;28;20186;-47
2021/03/27 01:23:57;;;;;;;9.93;7.53;;;8.80;99.90;;;;;;5060721;28;20588;-50
2021/03/27 01:26:26;;;;;;;10.87;6.93;;;8.80;99.90;;;;;;5062773;28;20212;-50
2021/03/27 01:29:06;;;;;;;8.60;7.37;;;8.80;99.90;;;;;;5063967;28;20198;-50
2021/03/27 01:31:39;;;;;;;9.00;7.20;;;8.80;99.90;;;;;;5061473;28;20896;-51
2021/03/27 01:34:29;;;;;;;9.93;7.80;;;8.80;99.90;;;;;;5065411;28;20197;-50
2021/03/27 01:37:07;;;;;;;11.37;7.17;;;8.80;99.90;;;;;;5065348;28;20182;-49
2021/03/27 01:40:03;;;;;;;9.47;6.70;;;8.80;99.90;;;;;;5026533;28;20205;-52
2021/03/27 01:42:55;;;;;;;9.37;7.07;;;8.80;99.90;;;;;;5041676;28;20191;-49
2021/03/27 01:45:27;;;;;;;8.90;6.80;;;8.80;99.90;;;;;;5043235;28;20171;-49
2021/03/27 01:48:04;;;;;;;10.77;7.00;;;8.70;99.90;;;;;;5049457;28;20207;-48
2021/03/27 01:50:43;;;;;;;11.13;7.43;;;8.70;99.90;;;;;;5060697;28;20224;-52
2021/03/27 01:53:08;;;;;;;8.93;7.80;;;8.70;99.90;;;;;;5056469;28;20179;-51
2021/03/27 01:55:50;;;;;;;9.53;7.07;;;8.70;99.90;;;;;;5042992;28;20198;-51
2021/03/27 01:58:29;;;;;;;7.70;6.83;;;8.70;99.90;;;;;;5061985;28;20210;-52
2021/03/27 02:01:16;;;;;;;9.60;7.37;;;8.70;99.90;;;;;;5063455;28;20179;-47
2021/03/27 02:03:43;;;;;;;9.43;6.90;;;8.60;99.90;;;;;;5061043;28;20863;-48
2021/03/27 02:06:38;;;;;;;10.27;6.37;;;8.60;99.90;;;;;;5063999;28;20647;-47
2021/03/27 02:09:24;;;;;;;11.30;7.13;;;8.50;99.90;;;;;;5063717;28;20191;-50
2021/03/27 02:12:12;;;;;;;8.57;7.10;;;8.50;99.90;;;;;;5054708;28;20295;-49
2021/03/27 02:15:03;;;;;;;9.23;7.43;;;8.40;99.90;;;;;;5063552;28;20171;-49
2021/03/27 02:17:46;;;;;;;8.47;6.83;;;8.30;99.90;;;;;;5054455;28;20172;-49
2021/03/27 02:20:18;;;;;;;10.23;6.80;;;8.30;99.90;;;;;;5064133;28;20195;-48
2021/03/27 02:23:04;;;;;;;11.10;6.93;;;8.30;99.90;;;;;;5057952;28;20176;-47
2021/03/27 02:26:08;;;;;;;8.20;6.03;;;8.30;99.90;;;;;;5028757;28;20183;-48
2021/03/27 02:28:53;;;;;;;13.13;7.17;;;8.30;99.90;;;;;;5033832;28;20274;-51
2021/03/27 02:31:51;;;;;;;12.37;7.83;;;8.30;99.90;;;;;;5042111;28;20207;-49
2021/03/27 02:34:32;;;;;;;9.77;6.70;;;8.30;99.90;;;;;;5033358;28;20191;-47
2021/03/27 02:37:23;;;;;;;8.00;6.10;;;8.30;99.90;;;;;;5043832;28;20620;-49
2021/03/27 02:39:59;;;;;;;10.77;6.73;;;8.30;99.90;;;;;;5040485;28;20184;-48
2021/03/27 02:42:57;;;;;;;8.10;6.33;;;8.30;99.90;;;;;;5024865;28;20206;-48
2021/03/27 02:45:40;;;;;;;7.43;6.47;;;8.30;99.90;;;;;;5011988;28;20337;-49
2021/03/27 02:48:12;;;;;;;11.00;7.23;;;8.30;99.90;;;;;;5052142;28;20215;-45
2021/03/27 02:50:45;;;;;;;8.63;5.63;;;8.30;99.90;;;;;;5059225;28;20228;-47
2021/03/27 02:53:15;;;;;;;12.37;7.77;;;8.30;99.90;;;;;;5059080;28;20187;-48
2021/03/27 02:55:51;;;;;;;11.30;7.03;;;8.40;99.90;;;;;;5052112;28;20909;-47
2021/03/27 02:58:30;;;;;;;7.60;6.73;;;8.40;99.90;;;;;;5046557;28;20691;-48
2021/03/27 03:01:19;;;;;;;8.27;6.77;;;8.40;99.90;;;;;;5062294;28;20699;-47
2021/03/27 03:03:59;;;;;;;6.80;6.10;;;8.50;99.90;;;;;;5061835;28;20302;-51
2021/03/27 03:06:45;;;;;;;10.17;6.47;;;8.50;99.90;;;;;;5061526;28;20193;-46
2021/03/27 03:09:24;;;;;;;10.57;7.10;;;8.60;99.90;;;;;;5063875;28;20248;-47
2021/03/27 03:11:56;;;;;;;7.70;6.57;;;8.60;99.90;;;;;;5047069;28;20213;-52
2021/03/27 03:14:45;;;;;;;10.77;6.43;;;8.60;99.90;;;;;;5063948;28;20207;-52
2021/03/27 03:17:38;;;;;;;8.37;6.53;;;8.70;99.90;;;;;;5059512;28;20184;-49
2021/03/27 03:20:28;;;;;;;8.60;6.60;;;8.80;99.90;;;;;;5062393;28;20178;-49
2021/03/27 03:22:57;;;;;;;8.83;6.73;;;8.80;99.90;;;;;;5058457;28;20195;-49
2021/03/27 03:25:28;;;;;;;8.37;6.50;;;8.90;99.90;;;;;;5052131;28;20174;-49
2021/03/27 03:28:05;;;;;;;6.83;6.10;;;8.90;99.90;;;;;;5045750;28;20207;-49
2021/03/27 03:31:02;;;;;;;10.40;6.57;;;8.90;99.90;;;;;;5057997;28;20186;-47
2021/03/27 03:33:36;;;;;;;6.67;5.97;;;9.00;99.90;;;;;;5059861;28;20175;-50
2021/03/27 03:36:13;;;;;;;9.97;6.17;;;9.00;99.90;;;;;;5062795;28;20170;-47
2021/03/27 03:38:39;;;;;;;6.83;5.83;;;9.00;99.90;;;;;;5059446;28;20411;-48
2021/03/27 03:41:27;;;;;;;9.27;6.20;;;9.00;99.90;;;;;;5062992;28;20208;-45
2021/03/27 03:43:55;;;;;;;8.03;5.70;;;9.00;99.90;;;;;;5014964;28;20215;-51
2021/03/27 03:46:38;;;;;;;8.23;6.20;;;9.00;99.90;;;;;;5044408;28;20186;-52
2021/03/27 03:49:23;;;;;;;8.40;5.60;;;9.00;99.90;;;;;;5055755;28;20288;-47
2021/03/27 03:51:51;;;;;;;7.90;5.67;;;9.10;99.90;;;;;;5064302;28;20209;-51
2021/03/27 03:54:32;;;;;;;11.10;6.90;;;9.10;99.90;;;;;;5054768;28;20175;-51
2021/03/27 03:57:08;;;;;;;6.07;5.53;;;9.20;99.90;;;;;;5060388;28;20198;-47
2021/03/27 03:59:50;;;;;;;8.00;5.90;;;9.20;99.90;;;;;;5033557;28;20939;-51
2021/03/27 04:02:26;;;;;;;9.40;5.23;;;9.20;99.90;;;;;;5042257;28;20205;-47
2021/03/27 04:04:57;;;;;;;7.17;5.10;;;9.30;99.90;;;;;;5042228;28;20234;-47
2021/03/27 04:07:31;;;;;;;6.57;4.90;;;9.50;99.90;;;;;;5040239;28;20183;-47
2021/03/27 04:10:09;;;;;;;7.77;6.30;;;9.50;99.90;;;;;;5043659;28;20176;-49
2021/03/27 04:12:38;;;;;;;6.53;5.63;;;9.50;99.90;;;;;;5039270;28;20207;-48
2021/03/27 04:15:34;;;;;;;7.80;5.57;;;9.70;99.90;;;;;;5029211;28;20195;-48
2021/03/27 04:18:57;;;;;;;6.73;6.03;;;9.80;99.90;;;;;;5051286;28;20202;-49
2021/03/27 04:21:31;;;;;;;7.50;6.10;;;9.80;99.90;;;;;;5001412;28;20276;-51
2021/03/27 04:24:02;;;;;;;7.07;5.00;;;9.70;99.90;;;;;;5002330;28;20188;-50
2021/03/27 04:26:39;;;;;;;7.20;5.77;;;9.40;99.90;;;;;;5020391;28;20231;-52
2021/03/27 04:29:29;;;;;;;7.17;5.57;;;9.10;99.90;;;;;;5042032;28;20210;-50
2021/03/27 04:32:24;;;;;;;6.40;5.47;;;8.80;99.90;;;;;;5040983;28;20200;-52
2021/03/27 04:35:06;;;;;;;5.40;4.73;;;8.60;99.90;;;;;;5043933;28;20362;-49
2021/03/27 04:37:42;;;;;;;4.60;3.70;;;8.40;99.90;;;;;;5042405;28;20960;-46
2021/03/27 04:40:11;;;;;;;4.10;3.40;;;8.20;99.90;;;;;;5044193;28;20220;-51
2021/03/27 04:42:58;;;;;;;3.57;2.70;;;7.90;99.90;;;;;;5039868;28;20178;-49
2021/03/27 04:45:31;;;;;;;4.10;2.30;;;7.70;99.90;;;;;;5031655;28;20179;-49
2021/03/27 04:48:31;;;;;;;2.03;1.83;;;7.50;99.90;;;;;;5041115;28;20204;-49
2021/03/27 04:51:37;;;;;;;1.70;1.40;;;7.30;99.90;;;;;;5046505;28;20779;-50
2021/03/27 04:54:06;;;;;;;2.80;1.57;;;7.10;99.90;;;;;;5054213;28;20193;-45
2021/03/27 04:56:44;;;;;;;5.13;1.53;;;7.00;99.90;;;;;;5054359;28;20183;-48
2021/03/27 04:59:34;;;;;;;2.37;1.20;;;6.90;99.90;;;;;;5065338;28;20539;-46
2021/03/27 05:02:07;;;;;;;1.50;1.27;;;6.80;99.90;;;;;;5049933;28;20213;-51
2021/03/27 05:05:00;;;;;;;3.53;1.30;;;6.70;99.90;;;;;;5061848;28;20204;-52
2021/03/27 05:07:48;;;;;;;2.47;1.20;;;6.70;99.90;;;;;;5062537;28;20277;-48
2021/03/27 05:10:53;;;;;;;2.13;1.40;;;6.60;99.90;;;;;;5059043;28;20682;-49
2021/03/27 05:13:26;;;;;;;1.27;1.17;;;6.60;99.90;;;;;;5047973;28;20202;-50
2021/03/27 05:16:02;;;;;;;4.07;1.20;;;6.50;99.90;;;;;;5060445;28;20230;-47
2021/03/27 05:19:05;;;;;;;1.17;1.10;;;6.40;99.90;;;;;;5032522;28;20283;-51
2021/03/27 05:21:37;;;;;;;2.57;1.53;;;6.30;99.90;;;;;;5035255;28;20183;-47
2021/03/27 05:24:03;;;;;;;2.43;1.20;;;6.30;99.90;;;;;;5040742;28;20175;-51
2021/03/27 05:27:06;;;;;;;1.63;1.00;;;6.30;99.90;;;;;;5041122;28;20176;-52
2021/03/27 05:29:31;;;;;;;1.27;1.17;;;6.20;99.90;;;;;;5043212;28;20199;-49
2021/03/27 05:32:29;;;;;;;1.40;1.30;;;6.20;99.90;;;;;;5049043;28;20361;-51
2021/03/27 05:35:07;;;;;;;1.30;1.20;;;6.20;99.90;;;;;;5018636;28;20257;-51
2021/03/27 05:37:38;;;;;;;2.53;1.80;;;6.20;99.90;;;;;;5041764;28;20178;-51
2021/03/27 05:40:25;;;;;;;2.87;1.70;;;6.10;99.90;;;;;;5035068;28;20208;-49
2021/03/27 05:43:12;;;;;;;1.97;1.77;;;6.10;99.90;;;;;;5044740;28;20270;-50
2021/03/27 05:46:02;;;;;;;2.20;1.60;;;6.10;99.90;;;;;;5040960;28;20261;-47
2021/03/27 05:49:02;;;;;;;2.73;2.00;;;6.10;99.90;;;;;;5029150;28;20199;-50
2021/03/27 05:51:59;;;;;;;2.77;2.10;;;6.10;99.90;;;;;;5039979;28;20863;-49
2021/03/27 05:55:04;;;;;;;5.07;1.90;;;6.10;99.90;;;;;;5047626;28;20645;-48
2021/03/27 05:58:01;;;;;;;2.53;2.27;;;6.10;99.90;;;;;;5035528;28;20194;-51
2021/03/27 06:00:36;;;;;;;2.70;2.50;;;6.10;99.90;;;;;;5040852;28;20164;-46
2021/03/27 06:03:22;;;;;;;3.23;1.93;;;6.10;99.90;;;;;;5032127;28;20187;-47
2021/03/27 06:05:57;;;;;;;2.10;1.90;;;6.10;99.90;;;;;;5029649;28;20198;-48
2021/03/27 06:08:25;;;;;;;2.10;1.90;;;6.10;99.90;;;;;;5034941;28;20190;-47
2021/03/27 06:11:17;;;;;;;4.63;1.90;;;6.10;99.90;;;;;;5037866;28;20202;-46
2021/03/27 06:13:58;;;;;;;1.40;1.30;;;6.10;99.90;;;;;;5044466;28;20263;-46
2021/03/27 06:16:40;;;;;;;2.30;1.87;;;6.00;99.90;;;;;;5038396;28;20186;-49
2021/03/27 06:19:39;;;;;;;2.03;1.83;;;6.00;99.90;;;;;;5042201;28;20222;-46
2021/03/27 06:22:35;;;;;;;2.00;1.87;;;6.00;99.90;;;;;;5046008;28;20479;-48
2021/03/27 06:25:19;;;;;;;3.70;2.10;;;6.10;99.90;;;;;;5048889;28;20199;-50
2021/03/27 06:28:16;;;;;;;2.20;2.00;;;6.10;99.90;;;;;;5041602;28;20211;-53
2021/03/27 06:31:05;;;;;;;2.17;1.97;;;6.00;99.90;;;;;;5041957;28;20190;-49
2021/03/27 06:33:56;;;;;;;2.87;1.87;;;6.00;99.90;;;;;;5040943;28;20187;-52
2021/03/27 06:36:49;;;;;;;2.13;1.93;;;6.10;99.90;;;;;;5030318;28;20191;-52
2021/03/27 06:39:29;;;;;;;3.30;1.90;;;6.00;99.90;;;;;;5039953;28;20294;-51
2021/03/27 06:42:10;;;;;;;2.70;1.80;;;6.00;99.90;;;;;;5040131;28;20194;-49
2021/03/27 06:44:55;;;;;;;2.30;1.80;;;6.00;99.90;;;;;;5040852;28;20170;-48
2021/03/27 06:47:48;;;;;;;2.10;1.90;;;6.10;99.90;;;;;;5051136;28;20191;-49
2021/03/27 06:50:42;;;;;;;2.10;1.83;;;6.10;99.90;;;;;;5061144;28;20193;-51
2021/03/27 06:53:10;;;;;;;2.63;2.43;;;6.10;99.90;;;;;;5038675;28;20213;-46
2021/03/27 06:55:55;;;;;;;2.80;2.43;;;6.10;99.90;;;;;;5052004;28;20239;-51
2021/03/27 06:58:32;;;;;;;2.70;2.40;;;6.10;99.90;;;;;;5040839;28;20221;-53
2021/03/27 07:01:15;;;;;;;2.57;2.37;;;6.10;99.90;;;;;;5045083;28;20187;-48
2021/03/27 07:04:28;;;;;;;2.50;2.30;;;6.20;99.90;;;;;;5040497;28;20190;-50
2021/03/27 07:07:30;;;;;;;3.23;2.63;;;6.20;99.90;;;;;;5030663;28;20218;-50
2021/03/27 07:10:30;;;;;;;3.57;2.50;;;6.20;99.90;;;;;;5041654;28;20195;-49
2021/03/27 07:13:16;;;;;;;3.53;3.10;;;6.20;99.90;;;;;;5037235;28;20214;-48
2021/03/27 07:16:02;;;;;;;3.00;2.67;;;6.20;99.90;;;;;;5039828;28;20167;-48
2021/03/27 07:18:45;;;;;;;6.80;3.77;;;6.20;99.90;;;;;;5041710;28;20206;-50
2021/03/27 07:21:29;;;;;;;5.63;3.70;;;6.20;99.90;;;;;;5040148;28;20215;-47
2021/03/27 07:24:21;;;;;;;3.43;2.43;;;6.20;99.90;;;;;;5035590;28;20184;-51
2021/03/27 07:27:29;;;;;;;3.17;2.03;;;6.10;99.90;;;;;;5039812;28;20191;-51
2021/03/27 07:30:09;;;;;;;2.00;1.80;;;5.90;99.90;;;;;;5036837;28;20209;-50
2021/03/27 07:32:44;;;;;;;1.80;1.50;;;5.90;99.90;;;;;;5042846;28;20207;-53
2021/03/27 07:36:07;;;;;;;3.53;1.43;;;5.80;99.90;;;;;;5037919;28;20256;-50
2021/03/27 07:38:37;;;;;;;2.33;1.13;;;5.70;99.90;;;;;;5031965;28;20213;-47
2021/03/27 07:41:30;;;;;;;2.60;1.40;;;5.60;99.90;;;;;;5033426;28;20206;-50
2021/03/27 07:44:04;;;;;;;1.83;1.27;;;5.70;99.90;;;;;;5021446;28;20643;-48
2021/03/27 07:47:01;;;;;;;1.23;1.13;;;5.60;99.90;;;;;;5035978;28;20196;-47
2021/03/27 07:49:51;;;;;;;1.77;1.03;;;5.60;99.90;;;;;;5040451;28;20183;-49
2021/03/27 07:52:31;;;;;;;1.00;0.90;;;5.60;99.90;;;;;;5018511;28;20218;-48
2021/03/27 07:55:34;;;;;;;1.30;1.20;;;5.60;99.90;;;;;;5038317;28;20186;-54
2021/03/27 07:58:24;;;;;;;4.60;1.30;;;5.60;99.90;;;;;;5020100;28;20196;-50
2021/03/27 08:01:30;;;;;;;1.43;1.10;;;5.70;99.90;;;;;;5029525;28;20262;-55
2021/03/27 08:04:32;;;;;;;4.37;1.13;;;5.80;99.90;;;;;;5038484;28;20185;-54
2021/03/27 08:07:13;;;;;;;1.33;0.97;;;5.90;99.90;;;;;;5032255;28;20248;-55
2021/03/27 08:10:18;;;;;;;4.80;1.20;;;6.00;99.90;;;;;;5051481;28;20203;-48
2021/03/27 08:12:59;;;;;;;1.60;1.33;;;5.90;99.90;;;;;;5039077;28;20301;-54
2021/03/27 08:15:49;;;;;;;1.00;1.00;;;6.00;99.90;;;;;;5033741;28;20262;-52
2021/03/27 08:18:41;;;;;;;2.67;2.00;;;6.10;99.90;;;;;;5044464;28;20191;-50
2021/03/27 08:21:36;;;;;;;2.70;2.03;;;6.20;99.90;;;;;;5059075;28;20598;-53
2021/03/27 08:24:10;;;;;;;3.83;2.30;;;6.20;99.90;;;;;;5032738;28;20202;-52
2021/03/27 08:26:51;;;;;;;4.97;2.80;;;6.10;99.90;;;;;;5035336;28;20190;-52
2021/03/27 08:29:41;;;;;;;3.33;2.80;;;6.10;99.90;;;;;;5036064;28;20206;-52
2021/03/27 08:32:31;;;;;;;2.63;2.33;;;6.20;99.90;;;;;;5045940;28;20739;-53
2021/03/27 08:35:03;;;;;;;4.43;2.43;;;6.20;99.90;;;;;;5041498;28;20175;-50
2021/03/27 08:37:58;;;;;;;4.80;2.97;;;6.40;99.90;;;;;;5037250;28;20630;-56
2021/03/27 08:41:03;;;;;;;7.00;3.40;;;6.50;99.90;;;;;;5043018;28;20176;-51
2021/03/27 08:43:47;;;;;;;5.00;3.23;;;6.60;99.90;;;;;;5034864;28;20799;-51
2021/03/27 08:46:30;;;;;;;4.70;4.07;;;6.70;99.90;;;;;;5039271;28;20679;-56
2021/03/27 08:49:19;;;;;;;6.70;4.63;;;6.90;99.90;;;;;;5043700;28;20251;-51
2021/03/27 08:51:59;;;;;;;7.60;4.53;;;7.10;99.90;;;;;;5024541;28;20192;-51
2021/03/27 08:54:46;;;;;;;5.57;3.57;;;7.20;99.90;;;;;;5044634;28;20179;-57
2021/03/27 08:57:36;;;;;;;7.50;4.47;;;7.30;99.90;;;;;;5056815;28;20187;-55
2021/03/27 09:00:33;;;;;;;6.70;5.20;;;7.40;99.90;;;;;;5044033;28;20172;-51
2021/03/27 09:03:37;;;;;;;6.13;4.20;;;7.40;99.90;;;;;;5042215;28;20193;-52
2021/03/27 09:06:31;;;;;;;5.37;4.57;;;7.40;99.90;;;;;;5036273;28;20202;-49
2021/03/27 09:09:36;;;;;;;5.57;3.90;;;7.50;99.90;;;;;;5028331;28;20730;-49
2021/03/27 09:12:38;;;;;;;5.37;4.53;;;7.60;99.90;;;;;;5037990;28;20251;-54
2021/03/27 09:15:42;;;;;;;7.73;4.60;;;7.70;99.90;;;;;;5044944;28;20203;-51
2021/03/27 09:18:16;;;;;;;7.73;4.23;;;7.80;99.90;;;;;;5047556;28;20254;-51
2021/03/27 09:21:10;;;;;;;6.63;4.00;;;7.90;99.90;;;;;;5039676;28;20187;-50
2021/03/27 09:23:50;;;;;;;6.43;3.87;;;8.10;99.90;;;;;;5038393;28;20179;-50
2021/03/27 09:26:24;;;;;;;9.30;3.77;;;8.20;99.90;;;;;;5037623;28;20195;-53
2021/03/27 09:29:11;;;;;;;7.10;3.63;;;8.40;99.90;;;;;;5034489;28;20190;-51
2021/03/27 09:32:05;;;;;;;4.77;3.43;;;8.40;99.90;;;;;;5034552;28;20239;-54
2021/03/27 09:35:11;;;;;;;8.73;3.47;;;8.60;99.90;;;;;;5037835;28;20176;-54
2021/03/27 09:38:13;;;;;;;3.77;3.40;;;8.60;99.90;;;;;;5042818;28;20175;-50
2021/03/27 09:41:15;;;;;;;4.90;3.10;;;8.50;99.90;;;;;;5031304;28;20201;-52
2021/03/27 09:44:08;;;;;;;5.30;3.43;;;8.40;99.90;;;;;;5036871;28;20281;-53
2021/03/27 09:47:04;;;;;;;7.87;2.90;;;8.30;99.90;;;;;;5040640;28;20612;-54
2021/03/27 09:49:51;;;;;;;5.20;2.87;;;8.30;99.90;;;;;;5043109;28;20754;-51
2021/03/27 09:52:40;;;;;;;3.07;2.63;;;8.40;99.90;;;;;;5044593;28;20222;-48
2021/03/27 09:55:30;;;;;;;4.37;3.00;;;8.50;99.90;;;;;;5035990;28;20187;-46
2021/03/27 09:58:22;;;;;;;5.13;3.00;;;8.70;99.90;;;;;;5047174;28;20286;-52
2021/03/27 10:00:47;;;;;;;4.63;2.90;;;8.80;99.90;;;;;;5039169;28;20294;-49
2021/03/27 10:03:29;;;;;;;4.30;2.67;;;8.70;99.90;;;;;;5035791;28;20701;-48
2021/03/27 10:06:22;;;;;;;3.80;3.27;;;8.60;99.90;;;;;;5043877;28;20175;-48
2021/03/27 10:09:30;;;;;;;4.07;2.90;;;8.50;99.90;;;;;;5042429;28;20757;-53
2021/03/27 10:12:14;;;;;;;5.77;2.80;;;8.30;99.90;;;;;;5041941;28;20222;-51
2021/03/27 10:14:52;;;;;;;4.07;2.80;;;7.90;99.90;;;;;;5040206;28;20259;-48
2021/03/27 10:17:23;;;;;;;4.03;2.63;;;7.70;99.90;;;;;;5039743;28;20645;-47
2021/03/27 10:20:16;;;;;;;2.87;2.60;;;7.40;99.90;;;;;;5034692;28;20392;-49
2021/03/27 10:22:50;;;;;;;2.57;2.10;;;7.10;99.90;;;;;;5035670;28;20195;-48
2021/03/27 10:25:30;;;;;;;3.10;2.10;;;6.70;99.90;;;;;;5043217;28;20176;-52
2021/03/27 10:28:06;;;;;;;1.90;1.47;;;6.60;99.90;;;;;;5035120;28;20221;-48
2021/03/27 10:30:40;;;;;;;1.57;1.40;;;6.50;99.90;;;;;;5031868;28;20191;-51
2021/03/27 10:33:17;;;;;;;1.90;0.90;;;6.50;99.90;;;;;;5035506;28;20209;-47
2021/03/27 10:35:45;;;;;;;3.47;1.30;;;6.40;99.90;;;;;;5032902;28;20191;-50
2021/03/27 10:38:52;;;;;;;1.57;1.47;;;6.30;99.90;;;;;;5046048;28;20250;-51
2021/03/27 10:42:03;;;;;;;2.03;1.70;;;6.40;99.90;;;;;;5044074;28;20207;-51
2021/03/27 10:44:34;;;;;;;1.70;1.60;;;6.50;99.90;;;;;;5019629;28;20254;-50
2021/03/27 10:47:05;;;;;;;3.77;1.80;;;6.70;99.90;;;;;;5039954;28;20195;-53
2021/03/27 10:49:57;;;;;;;2.13;1.73;;;6.80;99.90;;;;;;5038492;28;20301;-51
2021/03/27 10:52:57;;;;;;;2.13;1.80;;;6.80;99.90;;;;;;5042208;28;20210;-48
2021/03/27 10:56:05;;;;;;;4.00;2.13;;;6.70;99.90;;;;;;5037930;28;20184;-50
2021/03/27 10:58:53;;;;;;;2.70;1.67;;;6.50;99.90;;;;;;5026463;28;20207;-51
2021/03/27 11:01:44;;;;;;;3.37;1.80;;;6.40;99.90;;;;;;5011600;28;20203;-54
2021/03/27 11:04:15;;;;;;;3.13;1.93;;;6.50;99.90;;;;;;5043036;28;20199;-49
2021/03/27 11:07:21;;;;;;;2.50;1.60;;;6.70;99.90;;;;;;5037127;28;20245;-51
2021/03/27 11:10:34;;;;;;;2.10;1.57;;;6.90;99.90;;;;;;5031832;28;20190;-47
2021/03/27 11:13:30;;;;;;;1.40;1.30;;;7.20;99.90;;;;;;5048713;28;20217;-50
2021/03/27 11:16:24;;;;;;;2.80;1.53;;;7.40;99.90;;;;;;5045631;28;20202;-50
2021/03/27 11:19:22;;;;;;;3.67;1.10;;;7.60;99.90;;;;;;5039159;28;20199;-50
2021/03/27 11:22:32;;;;;;;1.63;0.80;;;7.80;99.90;;;;;;5036645;28;20183;-47
2021/03/27 11:25:17;;;;;;;3.33;1.00;;;7.90;99.90;;;;;;5000725;28;20588;-46
2021/03/27 11:28:06;;;;;;;3.00;0.77;;;7.90;99.90;;;;;;4997776;28;20205;-47
2021/03/27 11:31:00;;;;;;;5.70;1.00;;;7.80;99.90;;;;;;5020730;28;20210;-48
2021/03/27 11:33:37;;;;;;;1.90;0.90;;;7.70;99.90;;;;;;5029182;28;20254;-49
2021/03/27 11:36:28;;;;;;;1.80;1.23;;;7.80;99.90;;;;;;5029957;28;21688;-49
2021/03/27 11:39:00;;;;;;;2.87;1.50;;;7.90;99.90;;;;;;5037345;28;20264;-53
2021/03/27 11:41:40;;;;;;;3.37;1.30;;;8.00;99.90;;;;;;5053018;28;20191;-53
2021/03/27 11:44:24;;;;;;;4.13;1.53;;;8.10;99.90;;;;;;5059518;28;20261;-51
2021/03/27 11:47:03;;;;;;;3.00;1.87;;;8.20;99.90;;;;;;5028946;28;20210;-48
2021/03/27 11:49:41;;;;;;;5.83;1.67;;;8.30;99.90;;;;;;5028712;28;20653;-51
2021/03/27 11:52:29;;;;;;;3.63;1.37;;;8.40;99.90;;;;;;5027825;28;20610;-54
2021/03/27 11:55:22;;;;;;;4.17;1.30;;;8.50;99.90;;;;;;5035897;28;20189;-51
2021/03/27 11:57:50;;;;;;;5.40;1.53;;;8.50;99.90;;;;;;5038813;28;20286;-51
2021/03/27 12:01:00;;;;;;;5.60;1.27;;;8.20;99.90;;;;;;5027252;28;20194;-49
2021/03/27 12:03:54;;;;;;;3.00;1.37;;;7.90;99.90;;;;;;5030449;28;20599;-50
2021/03/27 12:06:49;;;;;;;8.00;1.50;;;7.60;99.90;;;;;;5038316;28;20637;-49
2021/03/27 12:09:25;;;;;;;5.17;1.33;;;7.30;99.90;;;;;;5027463;28;20761;-48
2021/03/27 12:12:07;;;;;;;5.13;1.80;;;7.00;99.90;;;;;;5037876;28;21000;-46
2021/03/27 12:14:39;;;;;;;6.87;1.43;;;6.80;99.90;;;;;;5044519;28;20708;-51
2021/03/27 12:17:46;;;;;;;8.50;2.23;;;6.50;99.90;;;;;;5045664;28;20190;-49
2021/03/27 12:20:35;;;;;;;5.50;1.30;;;6.30;99.90;;;;;;5038660;28;20648;-52
2021/03/27 12:23:04;;;;;;;6.63;1.80;;;6.00;99.90;;;;;;5039170;28;20498;-54
2021/03/27 12:26:03;;;;;;;9.07;1.90;;;5.90;99.90;;;;;;5050066;28;20186;-51
2021/03/27 12:28:35;;;;;;;6.53;1.80;;;5.90;99.90;;;;;;5037064;28;20245;-56
2021/03/27 12:31:20;;;;;;;11.03;1.60;;;5.90;99.90;;;;;;5041676;28;20173;-53
2021/03/27 12:34:26;;;;;;;11.67;1.90;;;6.00;99.90;;;;;;5024847;28;20187;-52
2021/03/27 12:37:23;;;;;;;12.77;1.70;;;6.10;99.90;;;;;;5024365;28;20547;-55
2021/03/27 12:39:57;;;;;;;6.60;1.50;;;6.20;99.90;;;;;;5044176;28;20195;-50
2021/03/27 12:42:32;;;;;;;8.33;2.07;;;6.30;99.90;;;;;;5045806;28;20194;-51
2021/03/27 12:45:12;;;;;;;10.07;2.33;;;6.40;99.90;;;;;;5059936;28;20635;-55
2021/03/27 12:47:39;;;;;;;6.33;1.60;;;6.50;99.90;;;;;;5039843;28;20561;-53
2021/03/27 12:50:18;;;;;;;7.10;1.90;;;6.60;99.90;;;;;;5032130;28;20642;-53
2021/03/27 12:53:07;;;;;;;10.60;2.33;;;6.70;99.90;;;;;;5043228;28;20282;-53
2021/03/27 12:55:44;;;;;;;5.77;2.00;;;6.80;99.90;;;;;;5035009;28;21081;-53
2021/03/27 12:58:24;;;;;;;10.10;2.50;;;7.00;99.90;;;;;;5032536;28;20203;-50
2021/03/27 13:01:10;;;;;;;5.40;1.80;;;7.10;99.90;;;;;;5036933;28;20183;-54
2021/03/27 13:03:39;;;;;;;18.53;3.10;;;7.30;99.90;;;;;;5027101;28;20179;-53
2021/03/27 13:06:29;;;;;;;11.00;1.70;;;7.60;99.90;;;;;;5034618;28;20648;-54
2021/03/27 13:09:13;;;;;;;14.50;3.27;;;7.80;99.90;;;;;;5040270;28;20206;-50
2021/03/27 13:11:49;;;;;;;16.63;2.97;;;8.00;99.90;;;;;;5042645;28;20211;-53
2021/03/27 13:14:48;;;;;;;8.47;2.70;;;8.20;99.90;;;;;;5042995;28;20182;-50
2021/03/27 13:17:35;;;;;;;15.27;2.80;;;8.40;99.90;;;;;;5050671;28;20175;-53
2021/03/27 13:20:19;;;;;;;8.23;2.30;;;8.40;99.90;;;;;;5027229;28;20538;-50
2021/03/27 13:22:54;;;;;;;10.57;2.10;;;8.60;99.90;;;;;;5054057;28;20175;-47
2021/03/27 13:25:50;;;;;;;10.13;2.80;;;8.70;99.90;;;;;;5040788;28;20244;-52
2021/03/27 13:28:45;;;;;;;6.40;2.27;;;8.80;99.90;;;;;;5056126;28;20203;-50
2021/03/27 13:31:18;;;;;;;9.13;2.13;;;8.90;99.90;;;;;;5061446;28;20186;-49
2021/03/27 13:33:51;;;;;;;6.37;2.43;;;8.80;99.90;;;;;;5059447;28;20744;-49
2021/03/27 13:36:17;;;;;;;8.80;2.13;;;8.70;99.90;;;;;;5026272;28;21165;-50
2021/03/27 13:38:57;;;;;;;6.37;2.00;;;8.70;99.90;;;;;;5055631;28;20279;-49
2021/03/27 13:41:32;;;;;;;8.90;1.77;;;8.80;99.90;;;;;;5049707;28;20202;-47
2021/03/27 13:44:12;;;;;;;8.83;2.33;;;8.80;99.90;;;;;;5043632;28;20211;-50
2021/03/27 13:47:07;;;;;;;5.67;1.70;;;8.80;99.90;;;;;;5046743;28;20274;-47
2021/03/27 13:49:43;;;;;;;7.03;2.40;;;8.70;99.90;;;;;;5043031;28;20479;-49
2021/03/27 13:52:23;;;;;;;5.87;2.17;;;8.60;99.90;;;;;;5033733;28;20206;-50
2021/03/27 13:54:56;;;;;;;10.90;2.40;;;8.60;99.90;;;;;;5040638;28;20221;-48
2021/03/27 13:57:24;;;;;;;10.43;2.13;;;8.80;99.90;;;;;;5036827;28;20183;-49
2021/03/27 13:59:58;;;;;;;5.40;1.90;;;9.30;99.90;;;;;;5041630;28;20249;-49
2021/03/27 14:02:55;;;;;;;5.00;1.37;;;9.80;99.90;;;;;;5029570;28;20185;-52
2021/03/27 14:05:41;;;;;;;8.23;2.33;;;10.00;99.90;;;;;;5048973;28;20178;-47
2021/03/27 14:08:17;;;;;;;7.80;2.23;;;10.60;99.90;;;;;;5025112;28;20702;-49
2021/03/27 14:11:00;;;;;;;7.23;2.27;;;11.00;99.90;;;;;;5039724;28;20219;-51
2021/03/27 14:13:41;;;;;;;10.77;2.10;;;10.70;99.80;;;;;;5041736;28;20245;-51
2021/03/27 14:16:42;;;;;;;6.93;2.73;;;10.30;99.90;;;;;;5049596;28;20182;-54
2021/03/27 14:19:41;;;;;;;6.53;1.60;;;9.70;99.90;;;;;;5006164;28;20255;-50
2021/03/27 14:22:21;;;;;;;10.00;1.90;;;9.40;99.90;;;;;;5032636;28;20179;-54
2021/03/27 14:24:56;;;;;;;6.20;1.90;;;9.30;99.90;;;;;;5054049;28;20213;-47
2021/03/27 14:27:44;;;;;;;7.13;2.23;;;9.20;99.90;;;;;;5040247;28;20939;-49